sensor_id;sensor_type;location;lat;lon;timestamp;P1;durP1;ratioP1;P2;durP2;ratioP2
1751;SDS011;873;47.696;8.068;2023-01-16T00:01:44;2.17;;;0.40;;
1751;SDS011;873;47.696;8.068;2023-01-16T00:04:10;1.73;;;0.30;;
1751;SDS011;873;47.696;8.068;2023-01-16T00:06:36;1.67;;;0.30;;
1751;SDS011;873;47.696;8.068;2023-01-16T00:09:02;3.17;;;0.40;;
1751;SDS011;873;47.696;8.068;2023-01-16T00:11:29;3.90;;;0.40;;
1751;SDS011;873;47.696;8.068;2023-01-16T00:13:54;0.93;;;0.30;;
1751;SDS011;873;47.696;8.068;2023-01-16T00:16:20;1.33;;;0.17;;
1751;SDS011;873;47.696;8.068;2023-01-16T00:18:46;1.90;;;0.30;;
1751;SDS011;873;47.696;8.068;2023-01-16T00:21:12;1.90;;;0.40;;
1751;SDS011;873;47.696;8.068;2023-01-16T00:23:38;0.27;;;0.27;;
1751;SDS011;873;47.696;8.068;2023-01-16T00:26:05;1.20;;;0.20;;
1751;SDS011;873;47.696;8.068;2023-01-16T00:28:31;0.50;;;0.38;;
1751;SDS011;873;47.696;8.068;2023-01-16T00:30:57;1.30;;;0.20;;
1751;SDS011;873;47.696;8.068;2023-01-16T00:33:23;1.33;;;0.30;;
1751;SDS011;873;47.696;8.068;2023-01-16T00:35:48;2.93;;;0.40;;
1751;SDS011;873;47.696;8.068;2023-01-16T00:38:14;2.23;;;0.20;;
1751;SDS011;873;47.696;8.068;2023-01-16T00:40:40;4.60;;;0.40;;
1751;SDS011;873;47.696;8.068;2023-01-16T00:43:05;2.73;;;0.30;;
1751;SDS011;873;47.696;8.068;2023-01-16T00:45:31;0.97;;;0.20;;
1751;SDS011;873;47.696;8.068;2023-01-16T00:47:56;1.53;;;0.27;;
1751;SDS011;873;47.696;8.068;2023-01-16T00:50:23;0.57;;;0.45;;
1751;SDS011;873;47.696;8.068;2023-01-16T00:52:49;3.40;;;0.77;;
1751;SDS011;873;47.696;8.068;2023-01-16T00:55:15;0.60;;;0.33;;
1751;SDS011;873;47.696;8.068;2023-01-16T00:57:40;0.83;;;0.30;;
1751;SDS011;873;47.696;8.068;2023-01-16T01:00:06;2.23;;;0.30;;
1751;SDS011;873;47.696;8.068;2023-01-16T01:02:32;2.40;;;0.45;;
1751;SDS011;873;47.696;8.068;2023-01-16T01:04:57;2.63;;;0.20;;
1751;SDS011;873;47.696;8.068;2023-01-16T01:07:23;1.57;;;0.10;;
1751;SDS011;873;47.696;8.068;2023-01-16T01:09:48;0.63;;;0.20;;
1751;SDS011;873;47.696;8.068;2023-01-16T01:12:14;2.47;;;0.40;;
1751;SDS011;873;47.696;8.068;2023-01-16T01:14:39;2.03;;;0.27;;
1751;SDS011;873;47.696;8.068;2023-01-16T01:17:05;1.07;;;0.20;;
1751;SDS011;873;47.696;8.068;2023-01-16T01:19:31;1.77;;;0.20;;
1751;SDS011;873;47.696;8.068;2023-01-16T01:21:56;0.77;;;0.30;;
1751;SDS011;873;47.696;8.068;2023-01-16T01:24:22;0.60;;;0.50;;
1751;SDS011;873;47.696;8.068;2023-01-16T01:26:47;2.47;;;0.27;;
1751;SDS011;873;47.696;8.068;2023-01-16T01:29:12;3.13;;;0.20;;
1751;SDS011;873;47.696;8.068;2023-01-16T01:31:38;4.83;;;0.60;;
1751;SDS011;873;47.696;8.068;2023-01-16T01:34:03;1.23;;;0.30;;
1751;SDS011;873;47.696;8.068;2023-01-16T01:36:29;3.50;;;0.30;;
1751;SDS011;873;47.696;8.068;2023-01-16T01:38:54;3.40;;;0.20;;
1751;SDS011;873;47.696;8.068;2023-01-16T01:41:20;1.07;;;0.80;;
1751;SDS011;873;47.696;8.068;2023-01-16T01:43:48;3.67;;;0.60;;
1751;SDS011;873;47.696;8.068;2023-01-16T01:46:20;1.02;;;0.40;;
1751;SDS011;873;47.696;8.068;2023-01-16T01:49:05;2.20;;;0.30;;
1751;SDS011;873;47.696;8.068;2023-01-16T01:51:37;2.25;;;0.30;;
1751;SDS011;873;47.696;8.068;2023-01-16T01:54:05;0.37;;;0.20;;
1751;SDS011;873;47.696;8.068;2023-01-16T01:56:35;2.45;;;0.47;;
1751;SDS011;873;47.696;8.068;2023-01-16T01:59:04;2.27;;;0.70;;
1751;SDS011;873;47.696;8.068;2023-01-16T02:01:33;8.90;;;1.20;;
1751;SDS011;873;47.696;8.068;2023-01-16T02:04:00;2.10;;;0.90;;
1751;SDS011;873;47.696;8.068;2023-01-16T02:06:28;3.38;;;0.95;;
1751;SDS011;873;47.696;8.068;2023-01-16T02:08:57;3.75;;;1.35;;
1751;SDS011;873;47.696;8.068;2023-01-16T02:11:25;5.83;;;1.47;;
1751;SDS011;873;47.696;8.068;2023-01-16T02:13:59;2.50;;;0.97;;
1751;SDS011;873;47.696;8.068;2023-01-16T02:16:28;4.18;;;1.02;;
1751;SDS011;873;47.696;8.068;2023-01-16T02:19:20;3.83;;;1.00;;
1751;SDS011;873;47.696;8.068;2023-01-16T02:24:42;2.90;;;1.00;;
1751;SDS011;873;47.696;8.068;2023-01-16T02:27:30;3.83;;;0.90;;
1751;SDS011;873;47.696;8.068;2023-01-16T02:30:21;3.97;;;0.98;;
1751;SDS011;873;47.696;8.068;2023-01-16T02:33:17;1.92;;;0.52;;
1751;SDS011;873;47.696;8.068;2023-01-16T02:35:53;1.75;;;0.52;;
1751;SDS011;873;47.696;8.068;2023-01-16T02:46:39;1.85;;;0.45;;
1751;SDS011;873;47.696;8.068;2023-01-16T02:49:16;1.70;;;0.57;;
1751;SDS011;873;47.696;8.068;2023-01-16T02:54:30;2.05;;;0.50;;
1751;SDS011;873;47.696;8.068;2023-01-16T02:57:01;0.98;;;0.50;;
1751;SDS011;873;47.696;8.068;2023-01-16T02:59:31;1.35;;;0.47;;
1751;SDS011;873;47.696;8.068;2023-01-16T03:01:58;2.60;;;0.50;;
1751;SDS011;873;47.696;8.068;2023-01-16T03:04:40;2.43;;;1.67;;
1751;SDS011;873;47.696;8.068;2023-01-16T03:24:20;1.60;;;0.80;;
1751;SDS011;873;47.696;8.068;2023-01-16T03:27:09;2.35;;;0.75;;
1751;SDS011;873;47.696;8.068;2023-01-16T03:32:42;3.05;;;0.95;;
1751;SDS011;873;47.696;8.068;2023-01-16T03:35:15;3.13;;;1.17;;
1751;SDS011;873;47.696;8.068;2023-01-16T03:37:52;2.00;;;0.80;;
1751;SDS011;873;47.696;8.068;2023-01-16T03:40:26;2.38;;;0.88;;
1751;SDS011;873;47.696;8.068;2023-01-16T03:42:59;1.65;;;0.60;;
1751;SDS011;873;47.696;8.068;2023-01-16T03:45:29;5.13;;;0.68;;
1751;SDS011;873;47.696;8.068;2023-01-16T03:48:00;1.95;;;0.70;;
1751;SDS011;873;47.696;8.068;2023-01-16T03:50:28;1.33;;;0.60;;
1751;SDS011;873;47.696;8.068;2023-01-16T03:52:56;5.28;;;1.08;;
1751;SDS011;873;47.696;8.068;2023-01-16T03:55:26;1.60;;;1.02;;
1751;SDS011;873;47.696;8.068;2023-01-16T03:57:59;4.65;;;1.02;;
1751;SDS011;873;47.696;8.068;2023-01-16T04:00:31;0.90;;;0.52;;
1751;SDS011;873;47.696;8.068;2023-01-16T04:03:08;2.80;;;0.70;;
1751;SDS011;873;47.696;8.068;2023-01-16T04:05:42;5.22;;;0.80;;
1751;SDS011;873;47.696;8.068;2023-01-16T04:08:17;4.43;;;1.05;;
1751;SDS011;873;47.696;8.068;2023-01-16T04:10:46;1.85;;;0.90;;
1751;SDS011;873;47.696;8.068;2023-01-16T04:13:15;3.00;;;0.90;;
1751;SDS011;873;47.696;8.068;2023-01-16T04:15:44;2.53;;;0.95;;
1751;SDS011;873;47.696;8.068;2023-01-16T04:18:12;4.30;;;1.00;;
1751;SDS011;873;47.696;8.068;2023-01-16T04:20:38;4.43;;;0.70;;
1751;SDS011;873;47.696;8.068;2023-01-16T04:23:05;3.30;;;0.90;;
1751;SDS011;873;47.696;8.068;2023-01-16T04:25:31;1.93;;;1.10;;
1751;SDS011;873;47.696;8.068;2023-01-16T04:27:56;0.90;;;0.60;;
1751;SDS011;873;47.696;8.068;2023-01-16T04:30:21;1.70;;;0.90;;
1751;SDS011;873;47.696;8.068;2023-01-16T04:32:47;2.27;;;0.90;;
1751;SDS011;873;47.696;8.068;2023-01-16T04:35:12;2.73;;;1.10;;
1751;SDS011;873;47.696;8.068;2023-01-16T04:37:38;2.90;;;1.07;;
1751;SDS011;873;47.696;8.068;2023-01-16T04:40:04;5.17;;;1.00;;
1751;SDS011;873;47.696;8.068;2023-01-16T04:42:30;5.35;;;1.40;;
1751;SDS011;873;47.696;8.068;2023-01-16T04:44:55;6.03;;;1.60;;
1751;SDS011;873;47.696;8.068;2023-01-16T04:47:21;3.20;;;1.17;;
1751;SDS011;873;47.696;8.068;2023-01-16T04:49:46;6.57;;;1.73;;
1751;SDS011;873;47.696;8.068;2023-01-16T04:52:11;3.83;;;1.70;;
1751;SDS011;873;47.696;8.068;2023-01-16T04:54:38;5.80;;;2.15;;
1751;SDS011;873;47.696;8.068;2023-01-16T04:57:03;4.60;;;2.30;;
1751;SDS011;873;47.696;8.068;2023-01-16T04:59:29;4.80;;;2.60;;
1751;SDS011;873;47.696;8.068;2023-01-16T05:01:55;5.07;;;2.97;;
1751;SDS011;873;47.696;8.068;2023-01-16T05:04:20;7.20;;;3.07;;
1751;SDS011;873;47.696;8.068;2023-01-16T05:06:46;4.17;;;2.37;;
1751;SDS011;873;47.696;8.068;2023-01-16T05:09:11;4.63;;;2.47;;
1751;SDS011;873;47.696;8.068;2023-01-16T05:11:37;3.90;;;2.13;;
1751;SDS011;873;47.696;8.068;2023-01-16T05:14:02;4.23;;;1.93;;
1751;SDS011;873;47.696;8.068;2023-01-16T05:16:30;4.47;;;2.70;;
1751;SDS011;873;47.696;8.068;2023-01-16T05:18:55;3.70;;;2.40;;
1751;SDS011;873;47.696;8.068;2023-01-16T05:21:21;4.07;;;2.83;;
1751;SDS011;873;47.696;8.068;2023-01-16T05:23:46;4.23;;;3.00;;
1751;SDS011;873;47.696;8.068;2023-01-16T05:26:12;5.50;;;2.87;;
1751;SDS011;873;47.696;8.068;2023-01-16T05:28:37;4.17;;;3.33;;
1751;SDS011;873;47.696;8.068;2023-01-16T05:31:03;5.67;;;3.97;;
1751;SDS011;873;47.696;8.068;2023-01-16T05:33:29;7.50;;;3.93;;
1751;SDS011;873;47.696;8.068;2023-01-16T05:35:55;4.47;;;3.47;;
1751;SDS011;873;47.696;8.068;2023-01-16T05:38:21;4.70;;;3.65;;
1751;SDS011;873;47.696;8.068;2023-01-16T05:40:47;9.43;;;4.22;;
1751;SDS011;873;47.696;8.068;2023-01-16T05:43:13;6.90;;;3.83;;
1751;SDS011;873;47.696;8.068;2023-01-16T05:45:38;8.00;;;4.10;;
1751;SDS011;873;47.696;8.068;2023-01-16T05:48:04;4.10;;;3.37;;
1751;SDS011;873;47.696;8.068;2023-01-16T05:50:30;6.53;;;3.97;;
1751;SDS011;873;47.696;8.068;2023-01-16T05:52:55;7.07;;;3.80;;
1751;SDS011;873;47.696;8.068;2023-01-16T05:55:21;7.20;;;3.67;;
1751;SDS011;873;47.696;8.068;2023-01-16T05:57:47;5.93;;;4.40;;
1751;SDS011;873;47.696;8.068;2023-01-16T06:00:12;7.77;;;3.73;;
1751;SDS011;873;47.696;8.068;2023-01-16T06:02:38;6.97;;;4.65;;
1751;SDS011;873;47.696;8.068;2023-01-16T06:05:04;6.20;;;3.97;;
1751;SDS011;873;47.696;8.068;2023-01-16T06:07:30;5.60;;;4.10;;
1751;SDS011;873;47.696;8.068;2023-01-16T06:09:55;5.93;;;4.13;;
1751;SDS011;873;47.696;8.068;2023-01-16T06:12:21;4.97;;;3.73;;
1751;SDS011;873;47.696;8.068;2023-01-16T06:14:46;34.50;;;5.63;;
1751;SDS011;873;47.696;8.068;2023-01-16T06:17:12;7.10;;;4.47;;
1751;SDS011;873;47.696;8.068;2023-01-16T06:19:40;10.88;;;4.30;;
1751;SDS011;873;47.696;8.068;2023-01-16T06:22:06;6.47;;;4.13;;
1751;SDS011;873;47.696;8.068;2023-01-16T06:24:32;10.30;;;4.17;;
1751;SDS011;873;47.696;8.068;2023-01-16T06:26:57;6.27;;;5.07;;
1751;SDS011;873;47.696;8.068;2023-01-16T06:29:23;7.00;;;4.00;;
1751;SDS011;873;47.696;8.068;2023-01-16T06:31:48;4.30;;;3.90;;
1751;SDS011;873;47.696;8.068;2023-01-16T06:34:14;7.20;;;4.47;;
1751;SDS011;873;47.696;8.068;2023-01-16T06:36:40;5.37;;;4.40;;
1751;SDS011;873;47.696;8.068;2023-01-16T06:39:07;5.47;;;4.10;;
1751;SDS011;873;47.696;8.068;2023-01-16T06:41:33;4.38;;;3.78;;
1751;SDS011;873;47.696;8.068;2023-01-16T06:43:58;5.73;;;3.30;;
1751;SDS011;873;47.696;8.068;2023-01-16T06:46:24;4.57;;;3.40;;
1751;SDS011;873;47.696;8.068;2023-01-16T06:48:50;3.67;;;3.30;;
1751;SDS011;873;47.696;8.068;2023-01-16T06:51:15;5.10;;;3.17;;
1751;SDS011;873;47.696;8.068;2023-01-16T06:53:41;3.80;;;3.30;;
1751;SDS011;873;47.696;8.068;2023-01-16T06:56:06;4.33;;;2.97;;
1751;SDS011;873;47.696;8.068;2023-01-16T06:58:32;4.83;;;3.63;;
1751;SDS011;873;47.696;8.068;2023-01-16T07:00:57;4.87;;;3.00;;
1751;SDS011;873;47.696;8.068;2023-01-16T07:03:23;4.83;;;3.20;;
1751;SDS011;873;47.696;8.068;2023-01-16T07:05:49;4.10;;;3.53;;
1751;SDS011;873;47.696;8.068;2023-01-16T07:08:15;5.37;;;3.07;;
1751;SDS011;873;47.696;8.068;2023-01-16T07:10:41;4.03;;;3.20;;
1751;SDS011;873;47.696;8.068;2023-01-16T07:13:06;5.83;;;3.13;;
1751;SDS011;873;47.696;8.068;2023-01-16T07:15:32;3.90;;;2.90;;
1751;SDS011;873;47.696;8.068;2023-01-16T07:18:18;5.13;;;3.75;;
1751;SDS011;873;47.696;8.068;2023-01-16T07:21:04;3.88;;;3.17;;
1751;SDS011;873;47.696;8.068;2023-01-16T07:23:51;3.40;;;2.97;;
1751;SDS011;873;47.696;8.068;2023-01-16T07:26:20;4.43;;;2.83;;
1751;SDS011;873;47.696;8.068;2023-01-16T07:28:46;4.70;;;3.05;;
1751;SDS011;873;47.696;8.068;2023-01-16T07:31:13;4.72;;;2.97;;
1751;SDS011;873;47.696;8.068;2023-01-16T07:33:38;3.10;;;2.60;;
1751;SDS011;873;47.696;8.068;2023-01-16T07:36:04;6.13;;;2.93;;
1751;SDS011;873;47.696;8.068;2023-01-16T07:38:30;4.17;;;3.20;;
1751;SDS011;873;47.696;8.068;2023-01-16T07:40:55;3.93;;;3.13;;
1751;SDS011;873;47.696;8.068;2023-01-16T07:43:21;4.70;;;3.43;;
1751;SDS011;873;47.696;8.068;2023-01-16T07:45:47;3.17;;;2.87;;
1751;SDS011;873;47.696;8.068;2023-01-16T07:48:18;4.35;;;3.20;;
1751;SDS011;873;47.696;8.068;2023-01-16T07:50:48;4.32;;;2.38;;
1751;SDS011;873;47.696;8.068;2023-01-16T07:53:16;3.72;;;2.63;;
1751;SDS011;873;47.696;8.068;2023-01-16T07:55:46;6.22;;;3.10;;
1751;SDS011;873;47.696;8.068;2023-01-16T07:58:12;4.00;;;2.72;;
1751;SDS011;873;47.696;8.068;2023-01-16T08:00:37;4.27;;;3.10;;
1751;SDS011;873;47.696;8.068;2023-01-16T08:03:03;4.33;;;3.30;;
1751;SDS011;873;47.696;8.068;2023-01-16T08:05:28;4.70;;;3.40;;
1751;SDS011;873;47.696;8.068;2023-01-16T08:07:54;5.33;;;3.40;;
1751;SDS011;873;47.696;8.068;2023-01-16T08:10:20;3.80;;;3.20;;
1751;SDS011;873;47.696;8.068;2023-01-16T08:12:45;6.03;;;3.57;;
1751;SDS011;873;47.696;8.068;2023-01-16T08:15:11;4.97;;;3.90;;
1751;SDS011;873;47.696;8.068;2023-01-16T08:17:37;5.43;;;3.50;;
1751;SDS011;873;47.696;8.068;2023-01-16T08:20:05;4.45;;;3.50;;
1751;SDS011;873;47.696;8.068;2023-01-16T08:22:30;4.03;;;3.23;;
1751;SDS011;873;47.696;8.068;2023-01-16T08:24:56;5.00;;;3.20;;
1751;SDS011;873;47.696;8.068;2023-01-16T08:27:21;6.20;;;3.70;;
1751;SDS011;873;47.696;8.068;2023-01-16T08:29:47;5.87;;;3.23;;
1751;SDS011;873;47.696;8.068;2023-01-16T08:32:12;4.23;;;3.33;;
1751;SDS011;873;47.696;8.068;2023-01-16T08:34:38;3.40;;;2.50;;
1751;SDS011;873;47.696;8.068;2023-01-16T08:37:03;3.37;;;3.00;;
1751;SDS011;873;47.696;8.068;2023-01-16T08:39:29;4.37;;;3.23;;
1751;SDS011;873;47.696;8.068;2023-01-16T08:41:55;4.40;;;3.07;;
1751;SDS011;873;47.696;8.068;2023-01-16T08:44:40;3.22;;;2.50;;
1751;SDS011;873;47.696;8.068;2023-01-16T08:47:26;3.67;;;2.83;;
1751;SDS011;873;47.696;8.068;2023-01-16T08:50:12;4.70;;;3.00;;
1751;SDS011;873;47.696;8.068;2023-01-16T08:52:58;5.55;;;3.15;;
1751;SDS011;873;47.696;8.068;2023-01-16T08:55:23;4.43;;;2.87;;
1751;SDS011;873;47.696;8.068;2023-01-16T08:57:49;2.57;;;2.10;;
1751;SDS011;873;47.696;8.068;2023-01-16T09:00:15;2.27;;;2.07;;
1751;SDS011;873;47.696;8.068;2023-01-16T09:02:40;4.30;;;2.43;;
1751;SDS011;873;47.696;8.068;2023-01-16T09:05:06;2.27;;;2.00;;
1751;SDS011;873;47.696;8.068;2023-01-16T09:07:32;2.83;;;2.30;;
1751;SDS011;873;47.696;8.068;2023-01-16T09:09:57;4.07;;;2.10;;
1751;SDS011;873;47.696;8.068;2023-01-16T09:12:23;2.13;;;1.80;;
1751;SDS011;873;47.696;8.068;2023-01-16T09:15:08;4.80;;;2.17;;
1751;SDS011;873;47.696;8.068;2023-01-16T09:17:34;5.70;;;2.53;;
1751;SDS011;873;47.696;8.068;2023-01-16T09:19:59;2.70;;;2.17;;
1751;SDS011;873;47.696;8.068;2023-01-16T09:22:26;3.10;;;1.30;;
1751;SDS011;873;47.696;8.068;2023-01-16T09:24:52;1.90;;;1.50;;
1751;SDS011;873;47.696;8.068;2023-01-16T09:27:18;3.33;;;1.37;;
1751;SDS011;873;47.696;8.068;2023-01-16T09:29:44;1.45;;;1.20;;
1751;SDS011;873;47.696;8.068;2023-01-16T09:32:10;1.20;;;1.10;;
1751;SDS011;873;47.696;8.068;2023-01-16T09:34:36;0.77;;;0.77;;
1751;SDS011;873;47.696;8.068;2023-01-16T09:37:03;1.63;;;0.90;;
1751;SDS011;873;47.696;8.068;2023-01-16T09:39:29;1.02;;;0.70;;
1751;SDS011;873;47.696;8.068;2023-01-16T09:44:48;0.77;;;0.50;;
1751;SDS011;873;47.696;8.068;2023-01-16T09:47:14;0.57;;;0.57;;
1751;SDS011;873;47.696;8.068;2023-01-16T09:49:45;0.97;;;0.73;;
1751;SDS011;873;47.696;8.068;2023-01-16T09:52:15;2.40;;;1.05;;
1751;SDS011;873;47.696;8.068;2023-01-16T09:55:04;1.70;;;1.10;;
1751;SDS011;873;47.696;8.068;2023-01-16T09:57:55;2.00;;;0.95;;
1751;SDS011;873;47.696;8.068;2023-01-16T10:00:41;2.13;;;1.27;;
1751;SDS011;873;47.696;8.068;2023-01-16T10:03:07;2.40;;;1.23;;
1751;SDS011;873;47.696;8.068;2023-01-16T10:05:36;1.58;;;1.30;;
1751;SDS011;873;47.696;8.068;2023-01-16T10:10:46;2.45;;;1.75;;
1751;SDS011;873;47.696;8.068;2023-01-16T10:18:53;3.28;;;1.30;;
1751;SDS011;873;47.696;8.068;2023-01-16T10:29:55;1.70;;;0.77;;
1751;SDS011;873;47.696;8.068;2023-01-16T10:35:20;1.70;;;0.52;;
1751;SDS011;873;47.696;8.068;2023-01-16T10:37:48;1.13;;;0.40;;
1751;SDS011;873;47.696;8.068;2023-01-16T10:40:23;0.30;;;0.30;;
1751;SDS011;873;47.696;8.068;2023-01-16T10:42:54;0.90;;;0.50;;
1751;SDS011;873;47.696;8.068;2023-01-16T10:45:45;0.52;;;0.30;;
1751;SDS011;873;47.696;8.068;2023-01-16T10:48:31;1.13;;;0.30;;
1751;SDS011;873;47.696;8.068;2023-01-16T10:51:16;0.85;;;0.38;;
1751;SDS011;873;47.696;8.068;2023-01-16T10:53:42;0.40;;;0.10;;
1751;SDS011;873;47.696;8.068;2023-01-16T10:56:08;0.30;;;0.10;;
1751;SDS011;873;47.696;8.068;2023-01-16T10:58:35;1.17;;;0.20;;
1751;SDS011;873;47.696;8.068;2023-01-16T11:03:40;0.33;;;0.10;;
1751;SDS011;873;47.696;8.068;2023-01-16T11:08:44;0.25;;;0.20;;
1751;SDS011;873;47.696;8.068;2023-01-16T11:11:13;0.00;;;0.00;;
1751;SDS011;873;47.696;8.068;2023-01-16T11:13:59;0.00;;;0.00;;
1751;SDS011;873;47.696;8.068;2023-01-16T11:16:58;0.10;;;0.00;;
1751;SDS011;873;47.696;8.068;2023-01-16T11:20:32;0.10;;;0.00;;
1751;SDS011;873;47.696;8.068;2023-01-16T11:23:00;0.20;;;0.00;;
1751;SDS011;873;47.696;8.068;2023-01-16T11:25:48;0.00;;;0.00;;
1751;SDS011;873;47.696;8.068;2023-01-16T11:28:19;0.08;;;0.00;;
1751;SDS011;873;47.696;8.068;2023-01-16T11:30:48;0.07;;;0.07;;
1751;SDS011;873;47.696;8.068;2023-01-16T11:33:16;0.40;;;0.20;;
1751;SDS011;873;47.696;8.068;2023-01-16T11:35:48;0.20;;;0.10;;
1751;SDS011;873;47.696;8.068;2023-01-16T11:38:17;0.20;;;0.20;;
1751;SDS011;873;47.696;8.068;2023-01-16T11:40:44;0.10;;;0.10;;
1751;SDS011;873;47.696;8.068;2023-01-16T11:43:15;0.57;;;0.10;;
1751;SDS011;873;47.696;8.068;2023-01-16T11:49:00;0.30;;;0.20;;
1751;SDS011;873;47.696;8.068;2023-01-16T11:51:32;0.23;;;0.20;;
1751;SDS011;873;47.696;8.068;2023-01-16T11:53:59;0.57;;;0.27;;
1751;SDS011;873;47.696;8.068;2023-01-16T11:59:26;0.07;;;0.07;;
1751;SDS011;873;47.696;8.068;2023-01-16T12:07:45;0.10;;;0.10;;
1751;SDS011;873;47.696;8.068;2023-01-16T12:10:32;0.10;;;0.10;;
1751;SDS011;873;47.696;8.068;2023-01-16T12:13:05;0.20;;;0.13;;
1751;SDS011;873;47.696;8.068;2023-01-16T12:15:56;0.27;;;0.10;;
1751;SDS011;873;47.696;8.068;2023-01-16T12:21:08;0.20;;;0.00;;
1751;SDS011;873;47.696;8.068;2023-01-16T12:26:39;0.00;;;0.00;;
1751;SDS011;873;47.696;8.068;2023-01-16T12:34:28;0.00;;;0.00;;
1751;SDS011;873;47.696;8.068;2023-01-16T12:39:58;1.55;;;0.10;;
1751;SDS011;873;47.696;8.068;2023-01-16T12:56:41;0.10;;;0.10;;
1751;SDS011;873;47.696;8.068;2023-01-16T12:59:34;0.10;;;0.10;;
1751;SDS011;873;47.696;8.068;2023-01-16T13:02:22;0.00;;;0.00;;
1751;SDS011;873;47.696;8.068;2023-01-16T13:04:58;0.38;;;0.10;;
1751;SDS011;873;47.696;8.068;2023-01-16T13:07:26;0.10;;;0.10;;
1751;SDS011;873;47.696;8.068;2023-01-16T13:09:59;0.40;;;0.20;;
1751;SDS011;873;47.696;8.068;2023-01-16T13:12:50;0.90;;;0.10;;
1751;SDS011;873;47.696;8.068;2023-01-16T13:15:37;0.10;;;0.00;;
1751;SDS011;873;47.696;8.068;2023-01-16T13:18:07;0.40;;;0.10;;
1751;SDS011;873;47.696;8.068;2023-01-16T13:20:40;0.10;;;0.10;;
1751;SDS011;873;47.696;8.068;2023-01-16T13:23:12;0.20;;;0.10;;
1751;SDS011;873;47.696;8.068;2023-01-16T13:25:41;0.20;;;0.00;;
1751;SDS011;873;47.696;8.068;2023-01-16T13:31:24;0.13;;;0.03;;
1751;SDS011;873;47.696;8.068;2023-01-16T13:34:02;0.40;;;0.17;;
1751;SDS011;873;47.696;8.068;2023-01-16T13:39:38;1.13;;;0.20;;
1751;SDS011;873;47.696;8.068;2023-01-16T13:42:17;0.20;;;0.10;;
1751;SDS011;873;47.696;8.068;2023-01-16T13:44:45;0.00;;;0.00;;
1751;SDS011;873;47.696;8.068;2023-01-16T13:47:35;0.10;;;0.00;;
1751;SDS011;873;47.696;8.068;2023-01-16T13:52:50;0.77;;;0.00;;
1751;SDS011;873;47.696;8.068;2023-01-16T13:55:24;1.20;;;0.00;;
1751;SDS011;873;47.696;8.068;2023-01-16T13:57:54;0.30;;;0.10;;
1751;SDS011;873;47.696;8.068;2023-01-16T14:00:21;0.10;;;0.00;;
1751;SDS011;873;47.696;8.068;2023-01-16T14:03:00;0.00;;;0.00;;
1751;SDS011;873;47.696;8.068;2023-01-16T14:05:41;0.00;;;0.00;;
1751;SDS011;873;47.696;8.068;2023-01-16T14:11:37;0.00;;;0.00;;
1751;SDS011;873;47.696;8.068;2023-01-16T14:17:02;1.10;;;0.10;;
1751;SDS011;873;47.696;8.068;2023-01-16T14:19:29;0.10;;;0.00;;
1751;SDS011;873;47.696;8.068;2023-01-16T14:22:01;0.10;;;0.00;;
1751;SDS011;873;47.696;8.068;2023-01-16T14:24:42;0.03;;;0.03;;
1751;SDS011;873;47.696;8.068;2023-01-16T14:27:11;0.00;;;0.00;;
1751;SDS011;873;47.696;8.068;2023-01-16T14:32:25;0.30;;;0.20;;
1751;SDS011;873;47.696;8.068;2023-01-16T14:37:40;0.67;;;0.17;;
1751;SDS011;873;47.696;8.068;2023-01-16T14:42:48;0.20;;;0.20;;
1751;SDS011;873;47.696;8.068;2023-01-16T14:45:36;0.10;;;0.10;;
1751;SDS011;873;47.696;8.068;2023-01-16T14:53:36;0.40;;;0.17;;
1751;SDS011;873;47.696;8.068;2023-01-16T14:56:30;0.20;;;0.10;;
1751;SDS011;873;47.696;8.068;2023-01-16T15:01:45;0.10;;;0.10;;
1751;SDS011;873;47.696;8.068;2023-01-16T15:04:41;0.20;;;0.10;;
1751;SDS011;873;47.696;8.068;2023-01-16T15:07:12;0.57;;;0.20;;
1751;SDS011;873;47.696;8.068;2023-01-16T15:09:41;0.17;;;0.10;;
1751;SDS011;873;47.696;8.068;2023-01-16T15:12:12;0.43;;;0.00;;
1751;SDS011;873;47.696;8.068;2023-01-16T15:14:50;0.25;;;0.13;;
1751;SDS011;873;47.696;8.068;2023-01-16T15:17:21;0.77;;;0.20;;
1751;SDS011;873;47.696;8.068;2023-01-16T15:20:27;0.73;;;0.10;;
1751;SDS011;873;47.696;8.068;2023-01-16T15:23:30;0.47;;;0.10;;
1751;SDS011;873;47.696;8.068;2023-01-16T15:31:22;0.23;;;0.20;;
1751;SDS011;873;47.696;8.068;2023-01-16T15:36:49;1.33;;;0.30;;
1751;SDS011;873;47.696;8.068;2023-01-16T15:41:58;0.22;;;0.20;;
1751;SDS011;873;47.696;8.068;2023-01-16T15:44:46;0.13;;;0.10;;
1751;SDS011;873;47.696;8.068;2023-01-16T15:47:35;1.27;;;0.20;;
1751;SDS011;873;47.696;8.068;2023-01-16T15:50:32;0.75;;;0.20;;
1751;SDS011;873;47.696;8.068;2023-01-16T15:53:14;0.60;;;0.30;;
1751;SDS011;873;47.696;8.068;2023-01-16T15:55:47;1.33;;;0.30;;
1751;SDS011;873;47.696;8.068;2023-01-16T15:58:17;0.65;;;0.20;;
1751;SDS011;873;47.696;8.068;2023-01-16T16:00:44;1.10;;;0.30;;
1751;SDS011;873;47.696;8.068;2023-01-16T16:03:11;0.30;;;0.20;;
1751;SDS011;873;47.696;8.068;2023-01-16T16:05:49;0.43;;;0.20;;
1751;SDS011;873;47.696;8.068;2023-01-16T16:08:17;2.23;;;0.23;;
1751;SDS011;873;47.696;8.068;2023-01-16T16:10:44;0.30;;;0.30;;
1751;SDS011;873;47.696;8.068;2023-01-16T16:13:30;1.27;;;0.20;;
1751;SDS011;873;47.696;8.068;2023-01-16T16:15:58;0.23;;;0.20;;
1751;SDS011;873;47.696;8.068;2023-01-16T16:18:53;2.20;;;0.30;;
1751;SDS011;873;47.696;8.068;2023-01-16T16:21:23;4.90;;;0.60;;
1751;SDS011;873;47.696;8.068;2023-01-16T16:23:56;1.70;;;0.50;;
1751;SDS011;873;47.696;8.068;2023-01-16T16:26:22;2.38;;;0.70;;
1751;SDS011;873;47.696;8.068;2023-01-16T16:28:48;4.60;;;1.10;;
1751;SDS011;873;47.696;8.068;2023-01-16T16:31:15;1.50;;;1.17;;
1751;SDS011;873;47.696;8.068;2023-01-16T16:33:54;3.97;;;1.35;;
1751;SDS011;873;47.696;8.068;2023-01-16T16:36:22;1.10;;;0.88;;
1751;SDS011;873;47.696;8.068;2023-01-16T16:38:48;2.17;;;0.90;;
1751;SDS011;873;47.696;8.068;2023-01-16T16:46:30;4.55;;;1.55;;
1751;SDS011;873;47.696;8.068;2023-01-16T16:48:57;3.25;;;1.08;;
1751;SDS011;873;47.696;8.068;2023-01-16T16:51:27;2.50;;;0.88;;
1751;SDS011;873;47.696;8.068;2023-01-16T16:53:58;3.28;;;0.82;;
1751;SDS011;873;47.696;8.068;2023-01-16T16:56:26;1.90;;;0.70;;
1751;SDS011;873;47.696;8.068;2023-01-16T16:58:54;3.00;;;1.63;;
1751;SDS011;873;47.696;8.068;2023-01-16T17:01:21;3.75;;;0.95;;
1751;SDS011;873;47.696;8.068;2023-01-16T17:03:49;2.80;;;0.82;;
1751;SDS011;873;47.696;8.068;2023-01-16T17:06:17;1.35;;;1.02;;
1751;SDS011;873;47.696;8.068;2023-01-16T17:08:45;5.13;;;0.80;;
1751;SDS011;873;47.696;8.068;2023-01-16T17:11:11;2.13;;;0.70;;
1751;SDS011;873;47.696;8.068;2023-01-16T17:13:37;3.03;;;0.63;;
1751;SDS011;873;47.696;8.068;2023-01-16T17:16:03;1.10;;;0.67;;
1751;SDS011;873;47.696;8.068;2023-01-16T17:18:31;1.75;;;0.60;;
1751;SDS011;873;47.696;8.068;2023-01-16T17:20:57;1.00;;;0.50;;
1751;SDS011;873;47.696;8.068;2023-01-16T17:23:22;1.90;;;0.70;;
1751;SDS011;873;47.696;8.068;2023-01-16T17:25:49;3.15;;;1.13;;
1751;SDS011;873;47.696;8.068;2023-01-16T17:28:14;1.30;;;0.60;;
1751;SDS011;873;47.696;8.068;2023-01-16T17:30:40;1.13;;;0.60;;
1751;SDS011;873;47.696;8.068;2023-01-16T17:35:46;1.25;;;1.17;;
1751;SDS011;873;47.696;8.068;2023-01-16T17:38:13;0.40;;;0.32;;
1751;SDS011;873;47.696;8.068;2023-01-16T17:40:40;0.75;;;0.65;;
1751;SDS011;873;47.696;8.068;2023-01-16T17:43:10;3.77;;;0.60;;
1751;SDS011;873;47.696;8.068;2023-01-16T17:45:59;1.77;;;0.32;;
1751;SDS011;873;47.696;8.068;2023-01-16T17:48:26;1.17;;;0.70;;
1751;SDS011;873;47.696;8.068;2023-01-16T17:50:52;2.30;;;0.73;;
1751;SDS011;873;47.696;8.068;2023-01-16T17:53:20;1.15;;;0.57;;
1751;SDS011;873;47.696;8.068;2023-01-16T17:55:47;6.95;;;0.68;;
1751;SDS011;873;47.696;8.068;2023-01-16T17:58:15;2.25;;;0.60;;
1751;SDS011;873;47.696;8.068;2023-01-16T18:00:43;0.95;;;0.28;;
1751;SDS011;873;47.696;8.068;2023-01-16T18:03:09;1.95;;;0.60;;
1751;SDS011;873;47.696;8.068;2023-01-16T18:05:35;0.88;;;0.50;;
1751;SDS011;873;47.696;8.068;2023-01-16T18:08:01;0.77;;;0.40;;
1751;SDS011;873;47.696;8.068;2023-01-16T18:10:27;2.08;;;0.60;;
1751;SDS011;873;47.696;8.068;2023-01-16T18:12:53;2.43;;;0.50;;
1751;SDS011;873;47.696;8.068;2023-01-16T18:15:39;0.85;;;0.43;;
1751;SDS011;873;47.696;8.068;2023-01-16T18:18:24;0.20;;;0.10;;
1751;SDS011;873;47.696;8.068;2023-01-16T18:20:50;2.10;;;0.30;;
1751;SDS011;873;47.696;8.068;2023-01-16T18:23:35;3.97;;;0.70;;